createdAt,value
2018-12-18T00:00:46.983Z,99.99
2018-12-18T00:01:46.981Z,99.99
2018-12-18T00:02:46.977Z,99.99
2018-12-18T00:03:46.974Z,99.99
2018-12-18T00:04:46.959Z,99.99
2018-12-18T00:05:46.968Z,99.99
2018-12-18T00:06:46.954Z,99.99
2018-12-18T00:07:46.975Z,99.99
2018-12-18T00:08:46.961Z,99.99
2018-12-18T00:09:46.953Z,99.99
2018-12-18T00:10:46.955Z,99.99
2018-12-18T00:11:46.951Z,99.99
2018-12-18T00:12:46.946Z,99.99
2018-12-18T00:13:46.973Z,99.99
2018-12-18T00:14:46.931Z,99.99
2018-12-18T00:15:46.977Z,99.99
2018-12-18T00:16:46.945Z,99.99
2018-12-18T00:17:46.943Z,99.99
2018-12-18T00:18:46.952Z,99.99
2018-12-18T00:19:46.928Z,99.99
2018-12-18T00:20:46.941Z,99.99
2018-12-18T00:21:46.945Z,99.99
2018-12-18T00:22:46.910Z,99.99
2018-12-18T00:23:46.961Z,99.99
2018-12-18T00:24:46.923Z,99.99
2018-12-18T00:25:46.887Z,99.99
2018-12-18T00:26:46.926Z,99.99
2018-12-18T00:27:46.909Z,99.99
2018-12-18T00:28:46.905Z,99.99
2018-12-18T00:29:46.905Z,99.99
2018-12-18T00:30:46.908Z,99.99
2018-12-18T00:31:46.908Z,99.99
2018-12-18T00:32:46.885Z,99.99
2018-12-18T00:33:46.937Z,99.99
2018-12-18T00:34:46.871Z,99.99
2018-12-18T00:35:46.885Z,99.99
2018-12-18T00:36:46.938Z,99.99
2018-12-18T00:37:46.908Z,99.99
2018-12-18T00:38:46.859Z,99.99
2018-12-18T00:39:46.876Z,99.99
2018-12-18T00:40:46.895Z,99.99
2018-12-18T00:41:46.878Z,99.99
2018-12-18T00:42:46.886Z,99.99
2018-12-18T00:43:46.867Z,99.99
2018-12-18T00:44:46.851Z,99.99
2018-12-18T00:45:46.898Z,99.99
2018-12-18T00:46:46.853Z,99.99
2018-12-18T00:47:46.848Z,99.99
2018-12-18T00:48:46.838Z,99.99
2018-12-18T00:49:46.848Z,99.99
2018-12-18T00:50:46.883Z,99.99
2018-12-18T00:51:46.846Z,99.99
2018-12-18T00:52:46.831Z,99.99
2018-12-18T00:53:46.839Z,99.99
2018-12-18T00:54:46.825Z,99.99
2018-12-18T00:55:46.831Z,99.99
2018-12-18T00:56:46.817Z,99.56
2018-12-18T00:57:46.829Z,98.88
2018-12-18T00:58:46.835Z,98.49
2018-12-18T00:59:46.805Z,98.19
2018-12-18T01:00:46.819Z,97.22
2018-12-18T01:01:46.867Z,96.34
2018-12-18T01:02:46.801Z,96.11
2018-12-18T01:03:52.574Z,95.76
2018-12-18T01:04:46.791Z,96.11
2018-12-18T01:05:46.815Z,96.20
2018-12-18T01:06:46.806Z,96.59
2018-12-18T01:07:53.057Z,96.30
2018-12-18T01:08:46.810Z,96.20
2018-12-18T01:09:46.785Z,95.91
2018-12-18T01:10:46.767Z,95.72
2018-12-18T01:11:46.789Z,95.91
2018-12-18T01:12:46.801Z,95.52
2018-12-18T01:13:46.763Z,95.32
2018-12-18T01:14:46.770Z,94.74
2018-12-18T01:15:46.778Z,94.26
2018-12-18T01:16:46.772Z,94.94
2018-12-18T01:17:46.770Z,93.77
2018-12-18T01:18:46.760Z,93.48
2018-12-18T01:19:46.767Z,91.38
2018-12-18T01:20:46.763Z,92.41
2018-12-18T01:21:46.794Z,90.89
2018-12-18T01:22:46.749Z,90.17
2018-12-18T01:23:46.742Z,89.73
2018-12-18T01:24:46.745Z,89.00
2018-12-18T01:25:46.738Z,89.25
2018-12-18T01:26:46.749Z,89.29
2018-12-18T01:27:46.722Z,89.25
2018-12-18T01:28:46.733Z,90.03
2018-12-18T01:29:46.727Z,89.25
2018-12-18T01:30:46.727Z,89.35
2018-12-18T01:31:46.729Z,89.25
2018-12-18T01:32:46.724Z,89.84
2018-12-18T01:33:46.706Z,89.45
2018-12-18T01:34:46.723Z,89.93
2018-12-18T01:35:46.965Z,89.06
2018-12-18T01:36:46.701Z,88.09
2018-12-18T01:37:46.700Z,88.09
2018-12-18T01:38:46.694Z,88.38
2018-12-18T01:39:46.702Z,88.76
2018-12-18T01:40:46.695Z,88.76
2018-12-18T01:41:46.684Z,89.06
2018-12-18T01:42:46.676Z,88.86
2018-12-18T01:43:46.713Z,88.86
2018-12-18T01:44:46.674Z,89.54
2018-12-18T01:45:46.735Z,89.45
2018-12-18T01:46:46.670Z,89.93
2018-12-18T01:47:46.655Z,89.93
2018-12-18T01:48:46.663Z,89.93
2018-12-18T01:49:46.672Z,90.22
2018-12-18T01:50:46.670Z,90.03
2018-12-18T01:51:46.653Z,90.22
2018-12-18T01:52:46.671Z,89.84
2018-12-18T01:53:46.658Z,89.35
2018-12-18T01:54:46.648Z,88.57
2018-12-18T01:55:46.658Z,88.38
2018-12-18T01:56:46.686Z,88.09
2018-12-18T01:57:46.652Z,88.09
2018-12-18T01:58:46.651Z,88.09
2018-12-18T01:59:46.642Z,87.40
2018-12-18T02:00:46.624Z,87.40
2018-12-18T02:01:46.615Z,87.40
2018-12-18T02:02:46.680Z,87.12
2018-12-18T02:03:46.625Z,87.12
2018-12-18T02:04:46.606Z,87.02
2018-12-18T02:05:46.615Z,87.40
2018-12-18T02:06:46.586Z,87.30
2018-12-18T02:07:46.659Z,87.16
2018-12-18T02:08:46.618Z,87.54
2018-12-18T02:09:46.599Z,87.45
2018-12-18T02:10:46.602Z,87.89
2018-12-18T02:11:46.597Z,87.93
2018-12-18T02:12:46.635Z,88.13
2018-12-18T02:13:46.610Z,90.12
2018-12-18T02:14:46.588Z,91.39
2018-12-18T02:15:46.569Z,92.85
2018-12-18T02:16:46.597Z,94.40
2018-12-18T02:17:46.630Z,95.23
2018-12-18T02:18:46.578Z,95.04
2018-12-18T02:19:46.567Z,95.14
2018-12-18T02:20:46.569Z,94.74
2018-12-18T02:21:46.499Z,93.77
2018-12-18T02:22:46.564Z,93.19
2018-12-18T02:23:46.505Z,93.29
2018-12-18T02:24:46.496Z,93.19
2018-12-18T02:25:46.504Z,93.68
2018-12-18T02:26:46.488Z,95.33
2018-12-18T02:27:46.471Z,95.62
2018-12-18T02:28:46.534Z,95.04
2018-12-18T02:29:46.474Z,95.91
2018-12-18T02:30:46.493Z,96.11
2018-12-18T02:31:46.465Z,96.20
2018-12-18T02:32:46.470Z,95.62
2018-12-18T02:33:46.561Z,95.81
2018-12-18T02:34:46.474Z,95.81
2018-12-18T02:35:46.468Z,96.20
2018-12-18T02:36:46.467Z,95.91
2018-12-18T02:37:46.442Z,96.69
2018-12-18T02:38:46.488Z,95.81
2018-12-18T02:39:46.505Z,97.76
2018-12-18T02:40:46.510Z,97.66
2018-12-18T02:41:46.504Z,95.91
2018-12-18T02:42:46.485Z,96.98
2018-12-18T02:43:46.516Z,96.69
2018-12-18T02:44:46.481Z,98.05
2018-12-18T02:45:46.475Z,97.56
2018-12-18T02:46:46.480Z,97.56
2018-12-18T02:47:46.457Z,98.68
2018-12-18T02:48:46.482Z,99.80
2018-12-18T02:49:46.472Z,99.99
2018-12-18T02:50:46.478Z,99.99
2018-12-18T02:51:46.452Z,99.51
2018-12-18T02:52:46.454Z,99.02
2018-12-18T02:53:46.445Z,98.44
2018-12-18T02:54:46.451Z,97.42
2018-12-18T02:55:46.471Z,96.98
2018-12-18T02:56:46.458Z,97.27
2018-12-18T02:57:46.445Z,97.61
2018-12-18T02:58:46.479Z,98.00
2018-12-18T02:59:46.427Z,97.81
2018-12-18T03:00:46.424Z,98.20
2018-12-18T03:01:46.426Z,97.71
2018-12-18T03:02:46.402Z,98.00
2018-12-18T03:03:46.415Z,98.49
2018-12-18T03:04:46.396Z,98.39
2018-12-18T03:05:46.412Z,98.20
2018-12-18T03:06:46.420Z,97.81
2018-12-18T03:07:46.405Z,97.81
2018-12-18T03:08:46.394Z,98.39
2018-12-18T03:09:46.411Z,98.73
2018-12-18T03:10:46.397Z,98.88
2018-12-18T03:11:46.383Z,98.97
2018-12-18T03:12:46.367Z,99.37
2018-12-18T03:13:46.370Z,99.85
2018-12-18T03:14:46.370Z,99.99
2018-12-18T03:15:46.363Z,99.99
2018-12-18T03:16:46.352Z,99.99
2018-12-18T03:17:46.347Z,99.99
2018-12-18T03:18:46.366Z,99.99
2018-12-18T03:19:46.354Z,99.99
2018-12-18T03:20:46.336Z,99.99
2018-12-18T03:21:46.351Z,99.99
2018-12-18T03:22:46.337Z,99.99
2018-12-18T03:23:46.382Z,99.99
2018-12-18T03:24:46.335Z,99.99
2018-12-18T03:25:46.319Z,99.99
2018-12-18T03:26:46.328Z,99.99
2018-12-18T03:27:46.324Z,99.99
2018-12-18T03:28:46.338Z,99.99
2018-12-18T03:29:46.306Z,99.99
2018-12-18T03:30:46.295Z,99.99
2018-12-18T03:31:46.300Z,99.99
2018-12-18T03:32:46.333Z,99.99
2018-12-18T03:33:46.290Z,99.99
2018-12-18T03:34:46.297Z,99.99
2018-12-18T03:35:46.308Z,99.99
2018-12-18T03:36:46.297Z,99.99
2018-12-18T03:37:46.289Z,99.99
2018-12-18T03:38:46.291Z,99.99
2018-12-18T03:39:46.269Z,99.99
2018-12-18T03:40:46.256Z,99.99
2018-12-18T03:41:46.284Z,99.99
2018-12-18T03:42:46.244Z,99.99
2018-12-18T03:43:46.250Z,99.99
2018-12-18T03:44:46.253Z,99.99
2018-12-18T03:45:46.548Z,99.99
2018-12-18T03:46:46.250Z,99.99
2018-12-18T03:47:46.250Z,99.99
2018-12-18T03:48:46.229Z,99.99
2018-12-18T03:49:46.237Z,99.99
2018-12-18T03:50:46.215Z,99.99
2018-12-18T03:51:46.220Z,99.99
2018-12-18T03:52:46.195Z,99.99
2018-12-18T03:53:46.206Z,99.99
2018-12-18T03:54:46.194Z,99.99
2018-12-18T03:55:46.202Z,99.99
2018-12-18T03:56:46.198Z,99.99
2018-12-18T03:57:46.221Z,99.99
2018-12-18T03:58:46.205Z,99.99
2018-12-18T03:59:46.199Z,99.99
2018-12-18T04:00:46.173Z,99.99
2018-12-18T04:01:46.221Z,99.99
2018-12-18T04:02:46.201Z,99.99
2018-12-18T04:03:46.153Z,99.99
2018-12-18T04:04:46.174Z,99.99
2018-12-18T04:05:46.150Z,99.99
2018-12-18T04:06:46.161Z,99.99
2018-12-18T04:07:46.158Z,99.99
2018-12-18T04:08:46.140Z,99.99
2018-12-18T04:09:46.169Z,99.99
2018-12-18T04:10:46.157Z,99.99
2018-12-18T04:11:46.157Z,99.99
2018-12-18T04:12:46.123Z,99.99
2018-12-18T04:13:46.135Z,99.99
2018-12-18T04:14:46.151Z,99.99
2018-12-18T04:15:46.148Z,99.99
2018-12-18T04:16:46.131Z,99.99
2018-12-18T04:17:46.165Z,99.99
2018-12-18T04:18:46.125Z,99.99
2018-12-18T04:19:46.115Z,99.99
2018-12-18T04:20:46.098Z,99.99
2018-12-18T04:21:46.086Z,99.99
2018-12-18T04:22:46.095Z,99.99
2018-12-18T04:23:46.116Z,99.99
2018-12-18T04:24:46.109Z,99.99
2018-12-18T04:25:46.079Z,99.99
2018-12-18T04:26:46.083Z,99.99
2018-12-18T04:27:46.095Z,99.99
2018-12-18T04:28:46.065Z,99.99
2018-12-18T04:29:46.067Z,99.99
2018-12-18T04:30:46.085Z,99.99
2018-12-18T04:31:46.059Z,99.99
2018-12-18T04:32:46.061Z,99.99
2018-12-18T04:33:46.064Z,99.99
2018-12-18T04:34:46.041Z,99.99
2018-12-18T04:35:46.053Z,99.99
2018-12-18T04:36:46.035Z,99.99
2018-12-18T04:37:46.047Z,99.99
2018-12-18T04:38:46.042Z,99.99
2018-12-18T04:39:46.049Z,99.99
2018-12-18T04:40:46.036Z,99.99
2018-12-18T04:41:46.032Z,99.99
2018-12-18T04:42:46.022Z,99.99
2018-12-18T04:43:46.010Z,99.99
2018-12-18T04:44:45.992Z,99.99
2018-12-18T04:45:46.011Z,99.99
2018-12-18T04:46:46.005Z,99.99
2018-12-18T04:47:46.015Z,99.99
2018-12-18T04:48:46.016Z,99.99
2018-12-18T04:49:45.992Z,99.99
2018-12-18T04:50:45.993Z,99.99
2018-12-18T04:51:46.024Z,99.99
2018-12-18T04:52:46.038Z,99.99
2018-12-18T04:53:45.982Z,99.99
2018-12-18T04:54:45.976Z,99.99
2018-12-18T04:55:45.964Z,99.99
2018-12-18T04:56:46.016Z,99.99
2018-12-18T04:57:45.953Z,99.99
2018-12-18T04:58:45.958Z,99.99
2018-12-18T04:59:45.969Z,99.99
2018-12-18T05:00:45.974Z,99.99
2018-12-18T05:01:45.949Z,99.99
2018-12-18T05:02:45.933Z,99.99
2018-12-18T05:03:45.962Z,99.99
2018-12-18T05:04:50.292Z,99.99
2018-12-18T05:05:45.951Z,99.99
2018-12-18T05:06:45.952Z,99.99
2018-12-18T05:07:45.929Z,99.99
2018-12-18T05:08:45.922Z,99.99
2018-12-18T05:09:45.923Z,99.99
2018-12-18T05:10:45.902Z,99.99
2018-12-18T05:11:45.923Z,99.99
2018-12-18T05:12:45.910Z,99.99
2018-12-18T05:13:45.912Z,99.99
2018-12-18T05:14:45.912Z,99.99
2018-12-18T05:15:45.899Z,99.99
2018-12-18T05:16:45.906Z,99.99
2018-12-18T05:17:45.914Z,99.99
2018-12-18T05:18:45.902Z,99.99
2018-12-18T05:19:45.873Z,99.99
2018-12-18T05:20:45.883Z,99.99
2018-12-18T05:21:45.854Z,99.99
2018-12-18T05:22:45.853Z,99.99
2018-12-18T05:23:45.859Z,99.99
2018-12-18T05:24:45.857Z,99.99
2018-12-18T05:25:45.861Z,99.99
2018-12-18T05:26:45.824Z,99.99
2018-12-18T05:27:45.842Z,99.99
2018-12-18T05:28:45.865Z,99.99
2018-12-18T05:29:45.846Z,99.99
2018-12-18T05:30:45.838Z,99.99
2018-12-18T05:31:45.823Z,99.99
2018-12-18T05:32:45.824Z,99.99
2018-12-18T05:33:45.810Z,99.99
2018-12-18T05:34:45.834Z,99.99
2018-12-18T05:35:45.829Z,99.99
2018-12-18T05:36:45.814Z,99.99
2018-12-18T05:37:45.799Z,99.99
2018-12-18T05:38:45.800Z,99.99
2018-12-18T05:39:45.785Z,99.99
2018-12-18T05:40:45.801Z,99.99
2018-12-18T05:41:45.799Z,99.99
2018-12-18T05:42:45.777Z,99.99
2018-12-18T05:43:45.797Z,99.99
2018-12-18T05:44:45.769Z,99.99
2018-12-18T05:45:45.765Z,99.99
2018-12-18T05:46:45.754Z,99.99
2018-12-18T05:47:45.766Z,99.99
2018-12-18T05:48:45.778Z,99.99
2018-12-18T05:49:45.749Z,99.99
2018-12-18T05:50:45.753Z,99.99
2018-12-18T05:51:45.761Z,99.99
2018-12-18T05:52:45.764Z,99.99
2018-12-18T05:53:45.742Z,99.99
2018-12-18T05:54:45.721Z,99.99
2018-12-18T05:55:45.729Z,99.99
2018-12-18T05:56:45.731Z,99.99
2018-12-18T05:57:46.028Z,99.99
2018-12-18T05:58:45.723Z,99.99
2018-12-18T05:59:45.726Z,99.99
2018-12-18T06:00:45.728Z,99.99
2018-12-18T06:01:45.697Z,99.99
2018-12-18T06:02:45.699Z,99.99
2018-12-18T06:03:45.696Z,99.99
2018-12-18T06:04:45.689Z,99.99
2018-12-18T06:05:45.675Z,99.99
2018-12-18T06:06:45.673Z,99.99
2018-12-18T06:07:45.679Z,99.99
2018-12-18T06:08:45.677Z,99.99
2018-12-18T06:09:45.671Z,99.99
2018-12-18T06:10:45.653Z,99.99
2018-12-18T06:11:45.649Z,99.99
2018-12-18T06:12:46.095Z,99.99
2018-12-18T06:13:45.674Z,99.99
2018-12-18T06:14:45.649Z,99.99
2018-12-18T06:15:45.628Z,99.99
2018-12-18T06:16:45.621Z,99.99
2018-12-18T06:17:45.627Z,99.99
2018-12-18T06:18:45.610Z,99.99
2018-12-18T06:19:45.627Z,99.99
2018-12-18T06:20:45.632Z,99.99
2018-12-18T06:21:45.615Z,99.99
2018-12-18T06:22:45.583Z,99.99
2018-12-18T06:23:45.589Z,99.99
2018-12-18T06:24:45.588Z,99.99
2018-12-18T06:25:45.608Z,99.99
2018-12-18T06:26:45.586Z,99.99
2018-12-18T06:27:45.580Z,99.99
2018-12-18T06:28:45.589Z,99.99
2018-12-18T06:29:45.587Z,99.99
2018-12-18T06:30:45.547Z,99.99
2018-12-18T06:31:45.548Z,99.99
2018-12-18T06:32:45.541Z,99.99
2018-12-18T06:33:45.588Z,99.99
2018-12-18T06:34:45.555Z,99.99
2018-12-18T06:35:45.565Z,99.99
2018-12-18T06:36:45.533Z,99.99
2018-12-18T06:37:45.515Z,99.99
2018-12-18T06:38:45.528Z,99.99
2018-12-18T06:39:45.510Z,99.99
2018-12-18T06:40:45.560Z,99.99
2018-12-18T06:41:45.550Z,99.99
2018-12-18T06:42:45.500Z,99.99
2018-12-18T06:43:45.485Z,99.99
2018-12-18T06:44:45.484Z,99.99
2018-12-18T06:45:45.461Z,99.99
2018-12-18T06:46:45.495Z,99.99
2018-12-18T06:47:45.472Z,99.99
2018-12-18T06:48:45.478Z,99.99
2018-12-18T06:49:45.454Z,99.99
2018-12-18T06:50:45.460Z,99.99
2018-12-18T06:51:45.434Z,99.99
2018-12-18T06:52:45.509Z,99.99
2018-12-18T06:53:45.432Z,99.99
2018-12-18T06:54:45.472Z,99.99
2018-12-18T06:55:45.488Z,99.99
2018-12-18T06:56:45.408Z,99.99
2018-12-18T06:57:45.421Z,99.99
2018-12-18T06:58:45.399Z,99.99
2018-12-18T06:59:45.415Z,99.99
2018-12-18T07:00:45.563Z,99.99
2018-12-18T07:01:45.404Z,99.99
2018-12-18T07:02:45.409Z,99.99
2018-12-18T07:03:45.386Z,99.99
2018-12-18T07:04:45.375Z,99.99
2018-12-18T07:05:45.390Z,99.99
2018-12-18T07:06:45.690Z,99.99
2018-12-18T07:07:45.404Z,99.99
2018-12-18T07:08:45.353Z,99.99
2018-12-18T07:09:45.364Z,99.99
2018-12-18T07:10:45.321Z,99.99
2018-12-18T07:11:45.388Z,99.99
2018-12-18T07:12:45.319Z,99.99
2018-12-18T07:13:45.342Z,99.99
2018-12-18T07:14:45.332Z,99.99
2018-12-18T07:15:45.362Z,99.99
2018-12-18T07:16:45.308Z,99.99
2018-12-18T07:17:45.286Z,99.99
2018-12-18T07:18:45.607Z,99.99
2018-12-18T07:19:45.338Z,99.99
2018-12-18T07:20:45.303Z,99.99
2018-12-18T07:21:45.294Z,99.99
2018-12-18T07:22:45.283Z,99.99
2018-12-18T07:23:45.263Z,99.99
2018-12-18T07:24:45.309Z,99.99
2018-12-18T07:25:45.268Z,99.99
2018-12-18T07:26:45.308Z,99.99
2018-12-18T07:27:45.289Z,99.99
2018-12-18T07:28:45.237Z,99.99
2018-12-18T07:29:45.281Z,99.99
2018-12-18T07:30:45.225Z,99.99
2018-12-18T07:31:45.277Z,99.99
2018-12-18T07:32:45.204Z,99.99
2018-12-18T07:33:45.218Z,99.99
2018-12-18T07:34:45.215Z,99.99
2018-12-18T07:35:45.228Z,99.99
2018-12-18T07:36:45.195Z,99.99
2018-12-18T07:37:45.202Z,99.99
2018-12-18T07:38:45.194Z,99.99
2018-12-18T07:39:45.174Z,99.99
2018-12-18T07:40:45.192Z,99.99
2018-12-18T07:41:45.176Z,99.99
2018-12-18T07:42:45.161Z,99.99
2018-12-18T07:43:45.161Z,99.99
2018-12-18T07:44:45.144Z,99.99
2018-12-18T07:45:45.159Z,99.99
2018-12-18T07:46:45.136Z,99.99
2018-12-18T07:47:45.129Z,99.99
2018-12-18T07:48:45.118Z,99.99
2018-12-18T07:49:45.142Z,99.99
2018-12-18T07:50:45.166Z,99.99
2018-12-18T07:51:45.130Z,99.99
2018-12-18T07:52:45.128Z,99.99
2018-12-18T07:53:45.083Z,99.99
2018-12-18T07:54:45.122Z,99.99
2018-12-18T07:55:45.139Z,99.99
2018-12-18T07:56:45.106Z,99.99
2018-12-18T07:57:45.085Z,99.99
2018-12-18T07:58:45.088Z,99.99
2018-12-18T07:59:45.086Z,99.99
2018-12-18T08:00:45.067Z,99.99
2018-12-18T08:01:45.042Z,99.99
2018-12-18T08:02:45.062Z,99.99
2018-12-18T08:03:45.304Z,99.99
2018-12-18T08:04:45.060Z,99.99
2018-12-18T08:05:45.035Z,99.99
2018-12-18T08:06:45.042Z,99.99
2018-12-18T08:07:45.039Z,99.99
2018-12-18T08:08:45.023Z,99.99
2018-12-18T08:09:45.011Z,99.99
2018-12-18T08:10:45.018Z,99.99
2018-12-18T08:11:44.985Z,99.99
2018-12-18T08:12:44.995Z,99.99
2018-12-18T08:13:44.997Z,99.99
2018-12-18T08:14:45.006Z,99.99
2018-12-18T08:15:44.998Z,99.99
2018-12-18T08:16:45.007Z,99.99
2018-12-18T08:17:44.963Z,99.99
2018-12-18T08:18:44.980Z,99.99
2018-12-18T08:19:44.937Z,99.99
2018-12-18T08:20:46.221Z,99.99
2018-12-18T08:21:44.940Z,99.99
2018-12-18T08:22:44.928Z,99.99
2018-12-18T08:23:44.940Z,99.99
2018-12-18T08:24:44.921Z,99.99
2018-12-18T08:25:44.934Z,99.99
2018-12-18T08:26:44.901Z,99.99
2018-12-18T08:27:44.905Z,99.99
2018-12-18T08:28:44.894Z,99.99
2018-12-18T08:29:44.903Z,99.99
2018-12-18T08:30:44.893Z,99.99
2018-12-18T08:31:44.883Z,99.99
2018-12-18T08:32:44.915Z,99.99
2018-12-18T08:33:44.872Z,99.99
2018-12-18T08:34:44.850Z,99.99
2018-12-18T08:35:44.860Z,99.99
2018-12-18T08:36:44.856Z,99.99
2018-12-18T08:37:44.841Z,99.99
2018-12-18T08:38:44.825Z,99.99
2018-12-18T08:39:44.828Z,99.99
2018-12-18T08:40:44.818Z,99.99
2018-12-18T08:41:44.804Z,99.99
2018-12-18T08:42:44.821Z,99.99
2018-12-18T08:43:44.815Z,99.99
2018-12-18T08:44:44.813Z,99.99
2018-12-18T08:45:44.808Z,99.99
2018-12-18T08:46:44.796Z,99.99
2018-12-18T08:47:44.761Z,99.99
2018-12-18T08:48:44.776Z,99.99
2018-12-18T08:49:44.756Z,99.99
2018-12-18T08:50:45.031Z,99.99
2018-12-18T08:51:44.738Z,99.99
2018-12-18T08:52:44.724Z,99.99
2018-12-18T08:53:44.751Z,99.99
2018-12-18T08:54:44.738Z,99.99
2018-12-18T08:55:44.722Z,99.99
2018-12-18T08:56:44.717Z,99.99
2018-12-18T08:57:44.714Z,99.99
2018-12-18T08:58:44.701Z,99.99
2018-12-18T08:59:44.684Z,99.99
2018-12-18T09:00:44.695Z,99.99
2018-12-18T09:01:44.673Z,99.99
2018-12-18T09:02:44.670Z,99.99
2018-12-18T09:03:44.692Z,99.99
2018-12-18T09:04:44.675Z,99.99
2018-12-18T09:05:44.672Z,99.99
2018-12-18T09:06:44.664Z,99.99
2018-12-18T09:07:44.640Z,99.99
2018-12-18T09:08:44.637Z,99.99
2018-12-18T09:09:44.634Z,99.99
2018-12-18T09:10:44.645Z,99.99
2018-12-18T09:11:44.621Z,99.99
2018-12-18T09:12:44.623Z,99.99
2018-12-18T09:13:44.673Z,99.99
2018-12-18T09:14:44.604Z,99.99
2018-12-18T09:15:44.613Z,99.99
2018-12-18T09:16:44.603Z,99.99
2018-12-18T09:17:44.563Z,99.99
2018-12-18T09:18:44.573Z,99.99
2018-12-18T09:19:44.577Z,99.99
2018-12-18T09:20:44.564Z,99.99
2018-12-18T09:21:44.570Z,99.99
2018-12-18T09:22:44.590Z,99.99
2018-12-18T09:23:44.561Z,99.99
2018-12-18T09:24:44.544Z,99.99
2018-12-18T09:25:44.538Z,99.99
2018-12-18T09:26:44.526Z,99.99
2018-12-18T09:27:44.522Z,99.99
2018-12-18T09:28:44.553Z,99.99
2018-12-18T09:29:44.494Z,99.99
2018-12-18T09:30:44.551Z,99.99
2018-12-18T09:31:44.508Z,99.99
2018-12-18T09:32:44.493Z,99.99
2018-12-18T09:33:44.477Z,99.99
2018-12-18T09:34:44.486Z,99.99
2018-12-18T09:35:49.653Z,99.99
2018-12-18T09:36:44.449Z,99.99
2018-12-18T09:37:44.515Z,99.99
2018-12-18T09:38:44.521Z,99.99
2018-12-18T09:39:44.467Z,99.99
2018-12-18T09:40:44.440Z,99.99
2018-12-18T09:41:44.441Z,99.99
2018-12-18T09:42:44.482Z,99.99
2018-12-18T09:43:44.403Z,99.99
2018-12-18T09:44:44.426Z,99.99
2018-12-18T09:45:44.417Z,99.99
2018-12-18T09:46:44.410Z,99.99
2018-12-18T09:47:44.389Z,99.99
2018-12-18T09:48:44.383Z,99.99
2018-12-18T09:49:44.387Z,99.99
2018-12-18T09:50:44.386Z,99.99
2018-12-18T09:51:44.409Z,99.99
2018-12-18T09:52:44.367Z,99.99
2018-12-18T09:53:44.352Z,99.99
2018-12-18T09:54:44.356Z,99.99
2018-12-18T09:55:44.335Z,99.99
2018-12-18T09:56:44.348Z,99.99
2018-12-18T09:57:44.340Z,99.99
2018-12-18T09:58:44.372Z,99.99
2018-12-18T09:59:44.335Z,99.99
2018-12-18T10:00:44.316Z,99.99
2018-12-18T10:01:44.307Z,99.99
2018-12-18T10:02:46.129Z,99.99
2018-12-18T10:03:44.320Z,99.99
2018-12-18T10:04:44.283Z,99.99
2018-12-18T10:05:44.299Z,99.99
2018-12-18T10:06:45.130Z,99.99
2018-12-18T10:07:44.275Z,99.99
2018-12-18T10:08:46.145Z,99.99
2018-12-18T10:09:44.249Z,99.99
2018-12-18T10:10:44.248Z,99.99
2018-12-18T10:11:44.277Z,99.99
2018-12-18T10:12:44.242Z,99.99
2018-12-18T10:13:44.240Z,99.99
2018-12-18T10:14:44.726Z,99.99
2018-12-18T10:15:44.218Z,99.99
2018-12-18T10:16:44.201Z,99.99
2018-12-18T10:17:44.198Z,99.99
2018-12-18T10:18:44.214Z,99.99
2018-12-18T10:19:44.193Z,99.99
2018-12-18T10:20:44.437Z,99.99
2018-12-18T10:21:44.220Z,99.99
2018-12-18T10:22:44.189Z,99.99
2018-12-18T10:23:44.180Z,99.99
2018-12-18T10:24:44.191Z,99.99
2018-12-18T10:25:46.210Z,99.99
2018-12-18T10:26:44.173Z,99.99
2018-12-18T10:27:44.154Z,99.99
2018-12-18T10:28:44.113Z,99.99
2018-12-18T10:29:44.124Z,99.99
2018-12-18T10:30:44.165Z,99.99
2018-12-18T10:31:44.482Z,99.99
2018-12-18T10:32:44.106Z,99.99
2018-12-18T10:33:44.110Z,99.99
2018-12-18T10:34:44.112Z,99.99
2018-12-18T10:35:44.115Z,99.99
2018-12-18T10:36:44.658Z,99.99
2018-12-18T10:37:44.092Z,99.99
2018-12-18T10:38:44.086Z,99.99
2018-12-18T10:39:44.094Z,99.99
2018-12-18T10:40:44.053Z,99.99
2018-12-18T10:41:44.075Z,99.99
2018-12-18T10:42:45.911Z,99.99
2018-12-18T10:43:44.059Z,99.99
2018-12-18T10:44:44.041Z,99.99
2018-12-18T10:45:44.051Z,99.99
2018-12-18T10:46:44.060Z,99.99
2018-12-18T10:47:44.028Z,99.99
2018-12-18T10:48:44.030Z,99.99
2018-12-18T10:49:44.029Z,99.99
2018-12-18T10:50:44.015Z,99.99
2018-12-18T10:51:44.042Z,99.99
2018-12-18T10:52:44.002Z,99.99
2018-12-18T10:53:44.006Z,99.99
2018-12-18T10:54:44.000Z,99.99
2018-12-18T10:55:43.994Z,99.99
2018-12-18T10:56:43.989Z,99.99
2018-12-18T10:57:43.992Z,99.99
2018-12-18T10:58:43.967Z,99.99
2018-12-18T10:59:43.952Z,99.99
2018-12-18T11:00:43.974Z,99.99
2018-12-18T11:01:43.931Z,99.99
2018-12-18T11:02:43.970Z,99.99
2018-12-18T11:03:43.942Z,99.99
2018-12-18T11:04:43.936Z,99.99
2018-12-18T11:05:43.945Z,99.99
2018-12-18T11:06:43.926Z,99.99
2018-12-18T11:07:43.923Z,99.99
2018-12-18T11:08:43.929Z,99.99
2018-12-18T11:09:44.175Z,99.99
2018-12-18T11:10:43.905Z,99.99
2018-12-18T11:11:45.956Z,99.99
2018-12-18T11:12:43.918Z,99.99
2018-12-18T11:13:43.882Z,99.99
2018-12-18T11:14:43.867Z,99.99
2018-12-18T11:15:43.938Z,99.99
2018-12-18T11:16:43.869Z,99.99
2018-12-18T11:17:43.861Z,99.99
2018-12-18T11:18:43.896Z,99.99
2018-12-18T11:19:43.869Z,99.99
2018-12-18T11:20:43.899Z,99.99
2018-12-18T11:21:43.850Z,99.99
2018-12-18T11:22:43.853Z,99.99
2018-12-18T11:23:43.861Z,99.99
2018-12-18T11:24:43.837Z,99.99
2018-12-18T11:25:43.836Z,99.99
2018-12-18T11:26:43.820Z,99.99
2018-12-18T11:27:43.834Z,99.99
2018-12-18T11:28:43.807Z,99.99
2018-12-18T11:29:43.814Z,99.99
2018-12-18T11:30:43.818Z,99.99
2018-12-18T11:31:43.842Z,99.99
2018-12-18T11:32:43.788Z,99.99
2018-12-18T11:33:43.789Z,99.99
2018-12-18T11:34:43.779Z,99.99
2018-12-18T11:35:43.762Z,99.99
2018-12-18T11:36:43.763Z,99.99
2018-12-18T11:37:43.778Z,99.99
2018-12-18T11:38:43.806Z,99.99
2018-12-18T11:39:43.803Z,99.99
2018-12-18T11:40:43.774Z,99.99
2018-12-18T11:41:43.793Z,99.99
2018-12-18T11:42:43.804Z,99.99
2018-12-18T11:43:43.781Z,99.99
2018-12-18T11:44:43.731Z,99.99
2018-12-18T11:45:43.721Z,99.99
2018-12-18T11:46:43.717Z,99.99
2018-12-18T11:47:43.730Z,99.99
2018-12-18T11:48:43.763Z,99.99
2018-12-18T11:49:43.715Z,99.99
2018-12-18T11:50:43.703Z,99.99
2018-12-18T11:51:43.705Z,99.99
2018-12-18T11:52:43.737Z,99.99
2018-12-18T11:53:43.731Z,99.99
2018-12-18T11:54:43.688Z,99.99
2018-12-18T11:55:43.686Z,99.99
2018-12-18T11:56:43.677Z,99.99
2018-12-18T11:57:43.667Z,99.99
2018-12-18T11:58:43.679Z,99.99
2018-12-18T11:59:43.660Z,99.99
2018-12-18T12:00:43.646Z,99.99
2018-12-18T12:01:43.689Z,99.99
2018-12-18T12:02:43.681Z,99.99
2018-12-18T12:03:43.627Z,99.99
2018-12-18T12:04:43.610Z,99.99
2018-12-18T12:05:43.628Z,99.99
2018-12-18T12:06:43.628Z,99.99
2018-12-18T12:07:43.625Z,99.99
2018-12-18T12:08:43.645Z,99.99
2018-12-18T12:09:43.603Z,99.99
2018-12-18T12:10:43.591Z,99.99
2018-12-18T12:11:43.594Z,99.99
2018-12-18T12:12:43.574Z,99.99
2018-12-18T12:13:43.573Z,99.99
2018-12-18T12:14:43.562Z,99.99
2018-12-18T12:15:43.571Z,99.99
2018-12-18T12:16:43.572Z,99.99
2018-12-18T12:17:43.543Z,99.99
2018-12-18T12:18:43.556Z,99.99
2018-12-18T12:19:43.557Z,99.99
2018-12-18T12:20:43.549Z,99.99
2018-12-18T12:21:43.540Z,99.99
2018-12-18T12:22:43.536Z,99.99
2018-12-18T12:23:43.529Z,99.99
2018-12-18T12:24:43.521Z,99.99
2018-12-18T12:25:43.512Z,99.99
2018-12-18T12:26:43.514Z,99.99
2018-12-18T12:27:43.500Z,99.99
2018-12-18T12:28:43.506Z,99.99
2018-12-18T12:29:43.510Z,99.99
2018-12-18T12:30:43.524Z,99.99
2018-12-18T12:31:43.494Z,99.99
2018-12-18T12:32:43.483Z,99.99
2018-12-18T12:33:43.498Z,99.99
2018-12-18T12:34:43.487Z,99.99
2018-12-18T12:35:43.458Z,99.99
2018-12-18T12:36:43.489Z,99.99
2018-12-18T12:37:43.447Z,99.99
2018-12-18T12:38:43.462Z,99.99
2018-12-18T12:39:43.452Z,99.99
2018-12-18T12:40:43.455Z,99.99
2018-12-18T12:41:43.450Z,99.99
2018-12-18T12:42:43.454Z,99.99
2018-12-18T12:43:43.428Z,99.99
2018-12-18T12:44:43.400Z,99.99
2018-12-18T12:45:43.430Z,99.99
2018-12-18T12:46:43.423Z,99.99
2018-12-18T12:47:43.413Z,99.99
2018-12-18T12:48:43.400Z,99.99
2018-12-18T12:49:43.417Z,99.99
2018-12-18T12:50:43.389Z,99.99
2018-12-18T12:51:43.406Z,99.99
2018-12-18T12:52:43.394Z,99.99